createdAt,value
2017-10-05T00:01:18.976Z,5.10
2017-10-05T00:03:51.160Z,4.90
2017-10-05T00:06:18.710Z,5.80
2017-10-05T00:08:46.252Z,5.83
2017-10-05T00:11:13.818Z,5.47
2017-10-05T00:13:42.152Z,5.53
2017-10-05T00:16:09.712Z,5.13
2017-10-05T00:18:37.275Z,6.37
2017-10-05T00:21:04.858Z,5.60
2017-10-05T00:23:32.423Z,5.30
2017-10-05T00:25:59.943Z,5.30
2017-10-05T00:28:27.499Z,6.30
2017-10-05T00:30:55.050Z,5.77
2017-10-05T00:33:22.631Z,6.47
2017-10-05T00:35:50.198Z,6.20
2017-10-05T00:38:17.794Z,6.20
2017-10-05T00:40:45.346Z,6.03
2017-10-05T00:43:12.889Z,5.70
2017-10-05T00:45:40.445Z,5.50
2017-10-05T00:48:07.995Z,6.70
2017-10-05T00:50:36.296Z,5.63
2017-10-05T00:53:03.857Z,5.93
2017-10-05T00:55:32.430Z,6.20
2017-10-05T00:58:00.761Z,5.83
2017-10-05T01:00:28.318Z,6.07
2017-10-05T01:02:55.878Z,5.93
2017-10-05T01:05:23.455Z,5.60
2017-10-05T01:07:50.995Z,6.47
2017-10-05T01:10:18.759Z,6.03
2017-10-05T01:12:46.307Z,6.77
2017-10-05T01:15:14.650Z,6.17
2017-10-05T01:17:42.206Z,7.07
2017-10-05T01:20:09.813Z,7.20
2017-10-05T01:22:38.125Z,7.50
2017-10-05T01:25:06.701Z,7.40
2017-10-05T01:27:34.248Z,7.67
2017-10-05T01:30:02.606Z,9.13
2017-10-05T01:32:30.184Z,8.03
2017-10-05T01:34:58.551Z,8.00
2017-10-05T01:37:26.151Z,8.17
2017-10-05T01:39:53.712Z,9.40
2017-10-05T01:42:21.279Z,8.30
2017-10-05T01:44:49.621Z,8.90
2017-10-05T01:47:17.168Z,8.90
2017-10-05T01:49:44.741Z,8.70
2017-10-05T01:52:12.309Z,7.60
2017-10-05T01:54:39.854Z,6.60
2017-10-05T01:57:07.439Z,8.77
2017-10-05T01:59:35.001Z,7.10
2017-10-05T02:02:02.545Z,7.50
2017-10-05T02:04:30.136Z,7.13
2017-10-05T02:06:57.675Z,7.43
2017-10-05T02:09:25.268Z,6.90
2017-10-05T02:11:52.817Z,7.10
2017-10-05T02:14:20.365Z,7.23
2017-10-05T02:16:47.914Z,6.73
2017-10-05T02:19:15.462Z,7.03
2017-10-05T02:21:43.049Z,5.60
2017-10-05T02:24:10.590Z,5.60
2017-10-05T02:26:38.883Z,6.43
2017-10-05T02:29:06.468Z,6.97
2017-10-05T02:31:34.004Z,6.00
2017-10-05T02:34:02.320Z,5.70
2017-10-05T02:36:30.640Z,6.20
2017-10-05T02:38:59.383Z,6.23
2017-10-05T02:41:27.870Z,4.83
2017-10-05T02:43:56.343Z,5.87
2017-10-05T02:46:23.891Z,5.50
2017-10-05T02:48:52.239Z,6.17
2017-10-05T02:51:19.797Z,5.23
2017-10-05T02:53:47.363Z,5.13
2017-10-05T02:56:14.922Z,5.47
2017-10-05T02:58:42.470Z,5.47
2017-10-05T03:01:10.053Z,5.13
2017-10-05T03:03:37.635Z,4.87
2017-10-05T03:06:05.264Z,5.03
2017-10-05T03:08:32.846Z,4.57
2017-10-05T03:11:00.384Z,4.60
2017-10-05T03:13:27.947Z,4.70
2017-10-05T03:15:55.500Z,4.73
2017-10-05T03:18:23.061Z,4.43
2017-10-05T03:20:50.659Z,4.67
2017-10-05T03:23:18.196Z,4.60
2017-10-05T03:25:45.741Z,4.90
2017-10-05T03:28:13.316Z,4.27
2017-10-05T03:30:41.612Z,4.30
2017-10-05T03:33:09.150Z,4.77
2017-10-05T03:35:37.455Z,4.00
2017-10-05T03:38:05.001Z,4.30
2017-10-05T03:40:33.348Z,4.77
2017-10-05T03:43:00.912Z,4.77
2017-10-05T03:45:28.430Z,4.60
2017-10-05T03:47:56.035Z,4.80
2017-10-05T03:50:23.572Z,4.00
2017-10-05T03:52:51.133Z,4.60
2017-10-05T03:55:18.721Z,4.70
2017-10-05T03:57:46.288Z,3.70
2017-10-05T04:00:13.928Z,4.67
2017-10-05T04:02:42.485Z,4.10
2017-10-05T04:05:10.788Z,4.50
2017-10-05T04:07:38.348Z,5.20
2017-10-05T04:10:05.919Z,4.23
2017-10-05T04:12:33.480Z,4.80
2017-10-05T04:15:01.063Z,4.43
2017-10-05T04:17:28.642Z,4.43
2017-10-05T04:19:56.223Z,4.33
2017-10-05T04:22:23.815Z,4.50
2017-10-05T04:24:52.130Z,3.30
2017-10-05T04:27:19.797Z,3.60
2017-10-05T04:29:47.390Z,4.03
2017-10-05T04:32:15.015Z,4.10
2017-10-05T04:34:42.571Z,3.50
2017-10-05T04:37:10.950Z,4.10
2017-10-05T04:39:39.308Z,3.37
2017-10-05T04:42:06.923Z,4.30
2017-10-05T04:44:34.526Z,3.97
2017-10-05T04:47:02.141Z,3.27
2017-10-05T04:49:29.787Z,3.57
2017-10-05T04:51:58.094Z,3.50
2017-10-05T04:54:25.668Z,3.90
2017-10-05T04:56:53.225Z,4.07
2017-10-05T04:59:20.796Z,4.13
2017-10-05T05:01:48.433Z,4.50
2017-10-05T05:04:16.838Z,4.20
2017-10-05T05:06:45.432Z,4.40
2017-10-05T05:09:13.226Z,5.07
2017-10-05T05:11:40.815Z,4.67
2017-10-05T05:14:09.072Z,4.03
2017-10-05T05:16:36.900Z,4.10
2017-10-05T05:19:05.233Z,3.97
2017-10-05T05:21:32.808Z,4.17
2017-10-05T05:24:00.398Z,4.47
2017-10-05T05:26:28.711Z,3.40
2017-10-05T05:28:56.328Z,3.60
2017-10-05T05:31:23.880Z,3.27
2017-10-05T05:33:51.703Z,3.87
2017-10-05T05:36:19.349Z,3.20
2017-10-05T05:38:46.976Z,3.90
2017-10-05T05:41:14.577Z,3.40
2017-10-05T05:43:42.205Z,3.30
2017-10-05T05:46:09.815Z,3.43
2017-10-05T05:48:38.154Z,3.33
2017-10-05T05:51:05.700Z,3.63
2017-10-05T05:53:33.243Z,3.70
2017-10-05T05:56:00.830Z,4.07
2017-10-05T05:58:28.893Z,3.50
2017-10-05T06:00:58.453Z,4.63
2017-10-05T06:03:26.027Z,4.37
2017-10-05T06:05:54.500Z,4.60
2017-10-05T06:08:22.060Z,4.20
2017-10-05T06:10:49.625Z,5.23
2017-10-05T06:13:17.191Z,4.57
2017-10-05T06:15:45.080Z,4.53
2017-10-05T06:18:12.640Z,5.17
2017-10-05T06:20:40.214Z,3.90
2017-10-05T06:23:08.547Z,4.00
2017-10-05T06:25:36.110Z,4.63
2017-10-05T06:28:03.680Z,4.30
2017-10-05T06:30:31.232Z,4.70
2017-10-05T06:32:59.690Z,4.17
2017-10-05T06:35:28.242Z,4.10
2017-10-05T06:37:55.820Z,4.27
2017-10-05T06:40:23.385Z,3.83
2017-10-05T06:42:50.932Z,4.07
2017-10-05T06:45:18.500Z,4.40
2017-10-05T06:47:46.044Z,4.93
2017-10-05T06:50:13.639Z,4.87
2017-10-05T06:52:41.171Z,4.37
2017-10-05T06:55:08.709Z,4.93
2017-10-05T06:57:36.286Z,4.63
2017-10-05T07:00:03.861Z,5.10
2017-10-05T07:02:31.422Z,4.57
2017-10-05T07:04:58.999Z,4.47
2017-10-05T07:07:27.023Z,4.27
2017-10-05T07:09:54.952Z,4.73
2017-10-05T07:12:22.505Z,4.60
2017-10-05T07:14:50.041Z,4.27
2017-10-05T07:17:17.629Z,4.60
2017-10-05T07:19:45.189Z,5.40
2017-10-05T07:22:12.739Z,4.20
2017-10-05T07:24:40.277Z,4.53
2017-10-05T07:27:07.846Z,4.43
2017-10-05T07:29:36.180Z,3.73
2017-10-05T07:32:03.739Z,3.80
2017-10-05T07:34:31.315Z,4.00
2017-10-05T07:36:58.863Z,2.80
2017-10-05T07:39:26.470Z,2.70
2017-10-05T07:41:53.992Z,2.70
2017-10-05T07:44:21.551Z,2.77
2017-10-05T07:46:49.142Z,2.90
2017-10-05T07:49:16.759Z,3.00
2017-10-05T07:51:44.308Z,2.93
2017-10-05T07:54:12.637Z,2.90
2017-10-05T07:56:40.215Z,3.90
2017-10-05T07:59:07.786Z,3.50
2017-10-05T08:01:35.319Z,3.53
2017-10-05T08:04:02.979Z,3.57
2017-10-05T08:06:30.517Z,3.50
2017-10-05T08:08:58.111Z,2.90
2017-10-05T08:11:25.669Z,3.53
2017-10-05T08:13:53.235Z,3.70
2017-10-05T08:16:21.544Z,3.60
2017-10-05T08:18:49.118Z,2.97
2017-10-05T08:21:16.682Z,2.90
2017-10-05T08:23:44.272Z,3.20
2017-10-05T08:26:11.815Z,2.73
2017-10-05T08:28:39.369Z,2.97
2017-10-05T08:31:06.926Z,2.47
2017-10-05T08:33:34.482Z,3.00
2017-10-05T08:36:02.033Z,3.23
2017-10-05T08:38:29.592Z,2.50
2017-10-05T08:40:57.127Z,3.13
2017-10-05T08:43:24.695Z,2.90
2017-10-05T08:45:52.335Z,2.77
2017-10-05T08:48:21.689Z,2.60
2017-10-05T08:50:49.259Z,2.60
2017-10-05T08:53:16.897Z,2.60
2017-10-05T08:55:44.643Z,3.00
2017-10-05T08:58:12.208Z,2.57
2017-10-05T09:00:39.766Z,2.70
2017-10-05T09:03:07.333Z,3.47
2017-10-05T09:05:34.908Z,2.77
2017-10-05T09:08:02.485Z,2.67
2017-10-05T09:10:30.913Z,2.80
2017-10-05T09:12:58.463Z,3.27
2017-10-05T09:15:26.011Z,3.17
2017-10-05T09:17:55.357Z,3.10
2017-10-05T09:20:23.146Z,2.83
2017-10-05T09:22:50.708Z,3.03
2017-10-05T09:25:18.267Z,2.40
2017-10-05T09:27:45.837Z,2.40
2017-10-05T09:30:15.040Z,2.93
2017-10-05T09:32:42.639Z,3.20
2017-10-05T09:35:10.218Z,3.17
2017-10-05T09:37:38.512Z,3.10
2017-10-05T09:40:06.092Z,2.30
2017-10-05T09:42:33.635Z,2.50
2017-10-05T09:45:01.956Z,2.93
2017-10-05T09:47:29.544Z,2.60
2017-10-05T09:49:57.115Z,2.77
2017-10-05T09:52:24.662Z,2.50
2017-10-05T09:54:52.230Z,2.73
2017-10-05T09:57:19.774Z,2.60
2017-10-05T09:59:47.361Z,2.70
2017-10-05T10:02:16.762Z,2.50
2017-10-05T10:04:44.290Z,2.60
2017-10-05T10:07:11.873Z,2.87
2017-10-05T10:09:39.450Z,2.80
2017-10-05T10:12:07.014Z,2.47
2017-10-05T10:14:34.596Z,2.43
2017-10-05T10:17:11.958Z,2.50
2017-10-05T10:19:41.090Z,3.30
2017-10-05T10:22:08.627Z,2.60
2017-10-05T10:24:36.196Z,2.60
2017-10-05T10:27:04.620Z,2.40
2017-10-05T10:29:32.917Z,2.60
2017-10-05T10:32:02.220Z,2.80
2017-10-05T10:34:30.517Z,2.60
2017-10-05T10:36:58.119Z,2.50
2017-10-05T10:39:26.661Z,2.80
2017-10-05T10:41:54.242Z,2.33
2017-10-05T10:44:21.796Z,2.50
2017-10-05T10:46:49.340Z,2.93
2017-10-05T10:49:17.961Z,1.93
2017-10-05T10:51:45.884Z,2.50
2017-10-05T10:54:13.513Z,2.10
2017-10-05T10:56:41.034Z,2.20
2017-10-05T10:59:13.726Z,2.57
2017-10-05T11:01:46.337Z,2.43
2017-10-05T11:04:13.966Z,3.00
2017-10-05T11:06:42.293Z,2.53
2017-10-05T11:09:09.857Z,3.20
2017-10-05T11:11:37.443Z,2.63
2017-10-05T11:14:05.022Z,2.63
2017-10-05T11:16:32.890Z,2.50
2017-10-05T11:19:01.321Z,2.50
2017-10-05T11:21:28.894Z,2.73
2017-10-05T11:23:58.488Z,3.10
2017-10-05T11:26:26.082Z,2.60
2017-10-05T11:28:53.637Z,3.03
2017-10-05T11:31:21.226Z,2.50
2017-10-05T11:33:48.802Z,2.73
2017-10-05T11:36:16.466Z,2.27
2017-10-05T11:38:44.134Z,2.73
2017-10-05T11:41:11.701Z,2.67
2017-10-05T11:43:39.313Z,2.97
2017-10-05T11:46:06.850Z,2.60
2017-10-05T11:48:35.223Z,3.13
2017-10-05T11:51:03.605Z,2.60
2017-10-05T11:53:32.178Z,2.43
2017-10-05T11:55:59.759Z,2.70
2017-10-05T11:58:27.470Z,2.20
2017-10-05T12:00:55.001Z,2.50
2017-10-05T12:03:22.715Z,2.40
2017-10-05T12:05:50.243Z,2.77
2017-10-05T12:08:18.562Z,2.73
2017-10-05T12:10:46.119Z,2.87
2017-10-05T12:13:16.241Z,2.57
2017-10-05T12:15:44.813Z,2.20
2017-10-05T12:18:12.378Z,2.33
2017-10-05T12:20:39.931Z,2.80
2017-10-05T12:23:08.292Z,2.97
2017-10-05T12:25:36.650Z,3.13
2017-10-05T12:28:04.203Z,2.90
2017-10-05T12:30:31.776Z,3.40
2017-10-05T12:32:59.419Z,3.23
2017-10-05T12:35:26.996Z,3.03
2017-10-05T12:37:54.817Z,2.97
2017-10-05T12:40:23.139Z,2.87
2017-10-05T12:42:51.100Z,2.60
2017-10-05T12:45:18.687Z,3.50
2017-10-05T12:47:46.209Z,3.10
2017-10-05T12:50:13.845Z,2.83
2017-10-05T12:52:41.457Z,2.90
2017-10-05T12:55:09.174Z,2.80
2017-10-05T12:57:37.535Z,2.90
2017-10-05T13:00:10.158Z,2.70
2017-10-05T13:02:39.009Z,2.60
2017-10-05T13:05:06.819Z,2.90
2017-10-05T13:07:38.922Z,2.93
2017-10-05T13:10:06.524Z,2.33
2017-10-05T13:12:34.079Z,2.57
2017-10-05T13:15:01.619Z,2.87
2017-10-05T13:17:29.371Z,2.80
2017-10-05T13:19:56.941Z,2.90
2017-10-05T13:22:25.247Z,3.40
2017-10-05T13:24:52.890Z,2.80
2017-10-05T13:27:21.235Z,3.00
2017-10-05T13:29:48.779Z,2.93
2017-10-05T13:32:17.368Z,3.30
2017-10-05T13:34:45.277Z,2.50
2017-10-05T13:37:13.841Z,2.83
2017-10-05T13:39:41.398Z,2.83
2017-10-05T13:42:08.993Z,2.80
2017-10-05T13:44:37.297Z,3.10
2017-10-05T13:47:04.881Z,3.37
2017-10-05T13:49:32.495Z,3.20
2017-10-05T13:52:00.056Z,2.73
2017-10-05T13:54:27.630Z,2.93
2017-10-05T13:56:55.216Z,2.50
2017-10-05T13:59:22.781Z,2.83
2017-10-05T14:01:51.110Z,2.97
2017-10-05T14:04:19.060Z,3.20
2017-10-05T14:06:46.610Z,2.97
2017-10-05T14:09:14.185Z,2.90
2017-10-05T14:11:41.735Z,3.10
2017-10-05T14:14:09.317Z,2.80
2017-10-05T14:16:36.939Z,2.63
2017-10-05T14:19:05.278Z,3.00
2017-10-05T14:21:33.081Z,2.50
2017-10-05T14:24:02.118Z,2.77
2017-10-05T14:26:29.844Z,2.63
2017-10-05T14:28:57.668Z,2.53
2017-10-05T14:31:25.243Z,2.60
2017-10-05T14:33:54.556Z,2.40
2017-10-05T14:36:22.115Z,2.43
2017-10-05T14:38:49.689Z,2.63
2017-10-05T14:41:19.868Z,2.40
2017-10-05T14:43:48.324Z,2.60
2017-10-05T14:46:15.884Z,2.60
2017-10-05T14:48:44.961Z,2.93
2017-10-05T14:51:13.321Z,2.80
2017-10-05T14:53:40.958Z,2.80
2017-10-05T14:56:08.810Z,3.50
2017-10-05T14:58:36.855Z,2.23
2017-10-05T15:01:04.399Z,2.57
2017-10-05T15:03:31.979Z,2.30
2017-10-05T15:05:59.672Z,2.63
2017-10-05T15:08:27.357Z,2.77
2017-10-05T15:10:55.825Z,2.60
2017-10-05T15:13:23.435Z,2.57
2017-10-05T15:15:52.171Z,2.40
2017-10-05T15:18:20.074Z,2.53
2017-10-05T15:20:49.128Z,2.10
2017-10-05T15:23:17.197Z,2.90
2017-10-05T15:25:44.826Z,2.50
2017-10-05T15:28:12.420Z,2.63
2017-10-05T15:30:41.909Z,2.40
2017-10-05T15:33:10.199Z,3.47
2017-10-05T15:35:38.035Z,2.50
2017-10-05T15:38:06.130Z,2.43
2017-10-05T15:40:33.754Z,2.33
2017-10-05T15:43:01.341Z,2.87
2017-10-05T15:45:28.910Z,2.70
2017-10-05T15:47:57.261Z,2.33
2017-10-05T15:50:24.820Z,2.40
2017-10-05T15:52:52.797Z,2.50
2017-10-05T15:55:20.508Z,2.57
2017-10-05T15:57:48.140Z,2.20
2017-10-05T16:00:15.741Z,2.30
2017-10-05T16:02:44.039Z,1.87
2017-10-05T16:05:12.387Z,2.80
2017-10-05T16:07:39.962Z,2.27
2017-10-05T16:10:07.643Z,2.00
2017-10-05T16:12:35.261Z,2.33
2017-10-05T16:15:02.831Z,2.70
2017-10-05T16:17:30.655Z,1.80
2017-10-05T16:19:58.449Z,2.13
2017-10-05T16:22:26.028Z,2.30
2017-10-05T16:24:53.650Z,2.23
2017-10-05T16:27:21.964Z,2.80
2017-10-05T16:29:49.526Z,2.03
2017-10-05T16:32:17.117Z,2.27
2017-10-05T16:34:44.781Z,2.20
2017-10-05T16:37:12.361Z,2.23
2017-10-05T16:39:39.922Z,1.93
2017-10-05T16:42:07.448Z,1.73
2017-10-05T16:44:35.014Z,1.90
2017-10-05T16:47:02.556Z,1.80
2017-10-05T16:49:30.174Z,1.60
2017-10-05T16:51:57.746Z,1.93
2017-10-05T16:54:25.297Z,1.70
2017-10-05T16:56:52.822Z,1.80
2017-10-05T16:59:20.433Z,1.90
2017-10-05T17:01:48.040Z,1.53
2017-10-05T17:04:16.348Z,1.70
2017-10-05T17:06:43.893Z,1.90
2017-10-05T17:09:12.469Z,1.70
2017-10-05T17:11:40.059Z,2.10
2017-10-05T17:14:07.613Z,2.73
2017-10-05T17:16:40.257Z,1.70
2017-10-05T17:19:07.852Z,2.03
2017-10-05T17:21:35.413Z,1.63
2017-10-05T17:24:08.053Z,2.10
2017-10-05T17:26:38.370Z,1.87
2017-10-05T17:29:08.073Z,1.63
2017-10-05T17:31:35.709Z,1.50
2017-10-05T17:34:03.439Z,1.87
2017-10-05T17:36:34.038Z,1.67
2017-10-05T17:39:02.375Z,2.23
2017-10-05T17:41:34.214Z,2.00
2017-10-05T17:44:02.225Z,1.80
2017-10-05T17:46:29.849Z,2.00
2017-10-05T17:48:57.454Z,2.00
2017-10-05T17:51:26.453Z,1.80
2017-10-05T17:53:55.688Z,1.93
2017-10-05T17:56:26.548Z,1.90
2017-10-05T17:58:55.737Z,2.13
2017-10-05T18:01:23.521Z,1.80
2017-10-05T18:03:51.878Z,2.13
2017-10-05T18:06:19.468Z,1.93
2017-10-05T18:08:48.893Z,2.17
2017-10-05T18:11:16.432Z,2.13
2017-10-05T18:13:44.060Z,2.10
2017-10-05T18:16:12.435Z,2.30
2017-10-05T18:18:40.887Z,2.53
2017-10-05T18:21:09.497Z,2.47
2017-10-05T18:23:37.802Z,2.40
2017-10-05T18:26:05.373Z,2.63
2017-10-05T18:28:32.929Z,3.20
2017-10-05T18:31:00.677Z,3.00
2017-10-05T18:33:28.984Z,3.10
2017-10-05T18:35:56.533Z,3.87
2017-10-05T18:38:24.869Z,3.70
2017-10-05T18:40:52.459Z,2.70
2017-10-05T18:43:20.029Z,3.23
2017-10-05T18:45:48.445Z,3.73
2017-10-05T18:48:16.190Z,2.53
2017-10-05T18:50:54.772Z,3.33
2017-10-05T18:53:23.791Z,3.00
2017-10-05T18:55:52.242Z,2.97
2017-10-05T18:58:19.899Z,3.17
2017-10-05T19:00:47.626Z,4.20
2017-10-05T19:03:16.388Z,6.10
2017-10-05T19:05:45.362Z,4.53
2017-10-05T19:08:13.301Z,3.50
2017-10-05T19:10:41.374Z,3.00
2017-10-05T19:13:09.327Z,3.43
2017-10-05T19:15:37.896Z,3.60
2017-10-05T19:18:05.618Z,3.60
2017-10-05T19:20:33.390Z,4.50
2017-10-05T19:23:04.734Z,3.63
2017-10-05T19:25:34.183Z,3.93
2017-10-05T19:28:02.277Z,5.30
2017-10-05T19:30:31.731Z,3.60
2017-10-05T19:33:00.549Z,3.70
2017-10-05T19:35:32.505Z,4.17
2017-10-05T19:38:00.287Z,3.87
2017-10-05T19:40:28.921Z,3.80
2017-10-05T19:42:57.700Z,3.53
2017-10-05T19:45:25.409Z,4.00
2017-10-05T19:47:53.909Z,3.43
2017-10-05T19:50:25.652Z,4.30
2017-10-05T19:52:56.084Z,2.00
2017-10-05T19:55:24.177Z,1.50
2017-10-05T19:57:52.734Z,2.40
2017-10-05T20:00:20.410Z,1.50
2017-10-05T20:02:48.049Z,1.60
2017-10-05T20:05:19.087Z,1.50
2017-10-05T20:07:49.455Z,1.47
2017-10-05T20:10:17.110Z,1.30
2017-10-05T20:12:44.992Z,1.50
2017-10-05T20:15:34.933Z,1.40
2017-10-05T20:18:20.821Z,1.40
2017-10-05T20:20:55.111Z,1.53
2017-10-05T20:23:39.546Z,1.60
2017-10-05T20:26:11.669Z,2.07
2017-10-05T20:28:43.067Z,1.70
2017-10-05T20:31:28.368Z,1.30
2017-10-05T20:33:55.952Z,1.83
2017-10-05T20:36:26.547Z,1.40
2017-10-05T20:38:56.988Z,1.73
2017-10-05T20:41:24.564Z,1.30
2017-10-05T20:43:52.291Z,1.90
2017-10-05T20:46:19.894Z,1.73
2017-10-05T20:48:47.470Z,2.13
2017-10-05T20:51:15.943Z,1.77
2017-10-05T20:53:43.549Z,2.03
2017-10-05T20:56:11.083Z,2.03
2017-10-05T20:58:38.667Z,2.87
2017-10-05T21:01:07.598Z,2.37
2017-10-05T21:03:35.205Z,3.20
2017-10-05T21:06:02.735Z,2.90
2017-10-05T21:08:30.329Z,2.70
2017-10-05T21:10:58.718Z,4.07
2017-10-05T21:13:27.247Z,2.97
2017-10-05T21:15:54.849Z,3.00
2017-10-05T21:18:22.525Z,3.10
2017-10-05T21:20:50.159Z,2.60
2017-10-05T21:23:19.426Z,3.53
2017-10-05T21:25:47.820Z,3.10
2017-10-05T21:28:15.483Z,2.90
2017-10-05T21:30:43.801Z,2.80
2017-10-05T21:33:11.447Z,3.00
2017-10-05T21:35:38.999Z,3.17
2017-10-05T21:38:06.560Z,3.53
2017-10-05T21:40:35.902Z,3.23
2017-10-05T21:43:03.624Z,3.40
2017-10-05T21:45:32.114Z,3.40
2017-10-05T21:47:59.717Z,3.33
2017-10-05T21:50:28.257Z,3.70
2017-10-05T21:52:56.698Z,3.47
2017-10-05T21:55:24.286Z,3.77
2017-10-05T21:57:52.689Z,3.60
2017-10-05T22:00:20.278Z,4.10
2017-10-05T22:02:52.474Z,4.90
2017-10-05T22:05:20.905Z,5.17
2017-10-05T22:07:49.231Z,4.30
2017-10-05T22:10:16.803Z,4.20
2017-10-05T22:12:44.415Z,5.67
2017-10-05T22:15:12.025Z,5.20
2017-10-05T22:17:41.467Z,4.87
2017-10-05T22:20:09.033Z,5.77
2017-10-05T22:22:36.565Z,5.57
2017-10-05T22:25:04.152Z,5.40
2017-10-05T22:27:31.690Z,5.33
2017-10-05T22:29:59.263Z,6.23
2017-10-05T22:32:26.841Z,6.70
2017-10-05T22:34:54.405Z,6.57
2017-10-05T22:37:21.970Z,5.80
2017-10-05T22:39:50.037Z,5.83
2017-10-05T22:42:17.663Z,5.70
2017-10-05T22:44:45.377Z,5.80
2017-10-05T22:47:13.036Z,6.13
2017-10-05T22:49:40.713Z,5.90
2017-10-05T22:52:08.270Z,6.97
2017-10-05T22:54:38.565Z,6.27
2017-10-05T22:57:06.875Z,6.83
2017-10-05T22:59:34.446Z,7.30
2017-10-05T23:02:02.027Z,6.50
2017-10-05T23:04:29.602Z,8.30
2017-10-05T23:06:58.184Z,6.90
2017-10-05T23:09:25.757Z,7.07
2017-10-05T23:11:53.322Z,7.27
2017-10-05T23:14:20.890Z,6.37
2017-10-05T23:16:48.492Z,6.87
2017-10-05T23:19:16.084Z,7.80
2017-10-05T23:21:43.669Z,7.70
2017-10-05T23:24:11.206Z,6.83
2017-10-05T23:26:38.788Z,6.30
2017-10-05T23:29:06.328Z,7.20
2017-10-05T23:31:33.902Z,6.73
2017-10-05T23:34:01.485Z,5.80
2017-10-05T23:36:29.136Z,6.17
2017-10-05T23:38:56.707Z,6.60
2017-10-05T23:41:24.299Z,9.03
2017-10-05T23:43:51.889Z,6.73
2017-10-05T23:46:20.223Z,6.23
2017-10-05T23:48:47.795Z,6.70
2017-10-05T23:51:15.361Z,6.97
2017-10-05T23:53:42.907Z,6.83
2017-10-05T23:56:10.496Z,7.50
2017-10-05T23:58:38.049Z,7.80
